Time;durP1;ratioP1;P1;durP2;ratioP2;P2;SDS_P1;SDS_P2;PMS_P1;PMS_P2;Temp;Humidity;BMP_temperature;BMP_pressure;BME280_temperature;BME280_humidity;BME280_pressure;Samples;Min_cycle;Max_cycle;Signal;HPM_P1;HPM_P2
2022/06/04 00:03:45;;;;;;;13.30;7.57;;;;;;;10.86;100.00;102155.38;10299688;28;20039;-77
2022/06/04 00:08:45;;;;;;;12.55;6.70;;;;;;;10.87;100.00;102146.88;10266122;28;20058;-77
2022/06/04 00:19:05;;;;;;;11.45;7.03;;;;;;;10.83;100.00;102173.22;10241621;28;20067;-76
2022/06/04 00:24:06;;;;;;;20.30;8.65;;;;;;;10.76;100.00;102158.63;10236925;28;20032;-77
2022/06/04 00:29:07;;;;;;;15.02;8.00;;;;;;;10.81;100.00;102160.69;10258910;28;20075;-77
2022/06/04 00:34:09;;;;;;;15.63;7.78;;;;;;;10.75;100.00;102145.06;10249685;28;20747;-77
2022/06/04 00:39:10;;;;;;;19.20;8.25;;;;;;;10.76;100.00;102149.53;10280818;28;20046;-77
2022/06/04 00:44:10;;;;;;;17.50;7.70;;;;;;;10.74;100.00;102158.00;10279767;28;20042;-77
2022/06/04 00:49:16;;;;;;;18.92;8.65;;;;;;;10.69;100.00;102155.94;10294775;28;20045;-76
2022/06/04 00:54:16;;;;;;;14.23;7.47;;;;;;;10.64;100.00;102141.97;10295434;28;20058;-77
2022/06/04 01:00:02;;;;;;;19.17;7.93;;;;;;;10.65;100.00;102142.84;10263623;28;20049;-78
2022/06/04 01:05:27;;;;;;;17.67;8.63;;;;;;;10.61;100.00;102147.94;10285782;28;20201;-76
2022/06/04 01:10:47;;;;;;;23.45;9.90;;;;;;;10.61;100.00;102147.94;10277914;28;20054;-77
2022/06/04 01:15:57;;;;;;;15.30;8.15;;;;;;;10.61;100.00;102153.44;10263048;28;20054;-77
2022/06/04 01:21:10;;;;;;;18.23;9.05;;;;;;;10.59;100.00;102152.81;10279193;28;20045;-76
2022/06/04 01:26:32;;;;;;;18.77;9.15;;;;;;;10.57;100.00;102149.44;10293916;28;20070;-77
2022/06/04 01:31:39;;;;;;;19.52;9.35;;;;;;;10.50;100.00;102146.75;10296396;28;20103;-77
2022/06/04 01:36:54;;;;;;;22.10;8.90;;;;;;;10.54;100.00;102152.63;10262206;28;20038;-77
2022/06/04 01:41:58;;;;;;;19.08;8.68;;;;;;;10.35;100.00;102126.09;10278465;28;20038;-77
2022/06/04 01:47:01;;;;;;;16.85;9.88;;;;;;;10.48;100.00;102148.88;10261987;28;20038;-76
2022/06/04 01:52:15;;;;;;;18.10;8.98;;;;;;;10.38;100.00;102128.44;10263380;28;20035;-77
2022/06/04 01:57:22;;;;;;;21.67;9.90;;;;;;;10.42;100.00;102144.28;10262391;28;20045;-76
2022/06/04 02:02:26;;;;;;;18.92;8.45;;;;;;;10.40;100.00;102145.56;10262266;28;20122;-77
2022/06/04 02:07:32;;;;;;;16.00;8.98;;;;;;;10.37;100.00;102148.75;10277108;28;20474;-77
2022/06/04 02:12:33;;;;;;;8.68;5.18;;;;;;;10.32;100.00;102143.06;10277707;28;20058;-76
2022/06/04 02:17:34;;;;;;;13.88;7.45;;;;;;;10.20;100.00;102123.63;10278457;28;20050;-77
2022/06/04 02:22:34;;;;;;;17.10;7.38;;;;;;;10.19;100.00;102138.44;10293129;28;20039;-77
2022/06/04 02:27:35;;;;;;;15.77;8.00;;;;;;;10.36;100.00;102169.09;10276592;28;20043;-77
2022/06/04 02:32:57;;;;;;;16.95;7.40;;;;;;;10.31;100.00;102164.22;10260040;28;20042;-77
2022/06/04 02:38:14;;;;;;;18.75;7.03;;;;;;;10.25;100.00;102165.94;10277326;28;20121;-76
2022/06/04 02:43:34;;;;;;;19.20;6.65;;;;;;;10.28;100.00;102182.00;10261262;28;20057;-77
2022/06/04 02:48:38;;;;;;;12.63;7.00;;;;;;;10.19;100.00;102183.34;10292384;28;20042;-77
2022/06/04 02:53:38;;;;;;;13.63;7.07;;;;;;;10.20;100.00;102185.00;10275632;28;20045;-76
2022/06/04 02:58:39;;;;;;;12.77;6.57;;;;;;;10.18;100.00;102195.41;10276191;28;20038;-77
2022/06/04 03:03:40;;;;;;;13.55;6.38;;;;;;;10.12;100.00;102190.78;10258795;28;20106;-76
2022/06/04 03:08:41;;;;;;;13.32;6.63;;;;;;;10.15;100.00;102200.50;10260645;28;20055;-77
2022/06/04 03:13:41;;;;;;;12.48;6.28;;;;;;;10.15;100.00;102200.50;10259233;28;20035;-77
2022/06/04 03:18:42;;;;;;;11.75;6.25;;;;;;;9.99;100.00;102185.34;10275324;28;20034;-78
2022/06/04 03:23:42;;;;;;;14.43;6.63;;;;;;;10.09;100.00;102194.81;10260387;28;20098;-77
2022/06/04 03:28:43;;;;;;;12.23;6.40;;;;;;;10.03;100.00;102170.09;10274886;28;20336;-77
2022/06/04 03:33:44;;;;;;;12.68;6.65;;;;;;;10.06;100.00;102178.72;10259194;28;20043;-76
2022/06/04 03:38:44;;;;;;;10.88;5.68;;;;;;;9.97;100.00;102162.72;10275801;28;20042;-77
2022/06/04 03:43:48;;;;;;;13.15;5.78;;;;;;;10.14;100.00;102174.88;10290958;28;20491;-77
2022/06/04 03:48:48;;;;;;;11.38;5.65;;;;;;;9.96;100.00;102122.47;10264511;28;20494;-77
2022/06/04 03:53:49;;;;;;;12.32;5.70;;;;;;;10.16;100.00;102159.00;10282699;28;20094;-77
2022/06/04 03:58:50;;;;;;;13.85;6.00;;;;;;;10.24;100.00;102153.22;10248603;28;20046;-77
2022/06/04 04:03:51;;;;;;;9.00;5.97;;;;;;;10.25;100.00;102154.94;10265046;28;20038;-77
2022/06/04 04:08:51;;;;;;;9.75;5.25;;;;;;;10.17;100.00;102124.94;10297363;28;20342;-77
2022/06/04 04:13:52;;;;;;;12.77;4.07;;;;;;;10.32;100.00;102160.44;10281178;28;20062;-77
2022/06/04 04:18:53;;;;;;;11.32;5.57;;;;;;;10.35;100.00;102159.13;10248752;28;20058;-76
2022/06/04 04:23:53;;;;;;;8.50;4.40;;;;;;;10.41;100.00;102174.75;10280987;28;20491;-77
2022/06/04 04:28:54;;;;;;;8.85;4.78;;;;;;;10.44;100.00;102174.34;10297261;28;20043;-76
2022/06/04 04:33:55;;;;;;;9.32;4.25;;;;;;;10.53;100.00;102156.47;10280321;28;20039;-77
2022/06/04 04:38:58;;;;;;;6.55;4.15;;;;;;;10.58;100.00;102162.13;10280820;28;20054;-77
2022/06/04 04:43:58;;;;;;;7.85;3.90;;;;;;;10.65;100.00;102171.22;10277540;28;20114;-77
2022/06/04 04:48:59;;;;;;;8.43;5.57;;;;;;;10.63;100.00;102156.81;10264376;28;20038;-77
2022/06/04 04:53:59;;;;;;;7.90;4.47;;;;;;;10.78;100.00;102172.19;10279903;28;20035;-77
2022/06/04 04:59:00;;;;;;;5.13;4.03;;;;;;;10.86;100.00;102172.75;10262352;28;20051;-77
2022/06/04 05:04:00;;;;;;;8.05;5.05;;;;;;;10.95;100.00;102178.81;10288210;28;20112;-76
2022/06/04 05:09:01;;;;;;;7.95;4.25;;;;;;;11.03;100.00;102174.94;10280986;28;20050;-77
2022/06/04 05:14:02;;;;;;;9.63;4.40;;;;;;;11.08;100.00;102178.72;10259166;28;20035;-76
2022/06/04 05:19:03;;;;;;;6.20;5.07;;;;;;;11.16;100.00;102205.13;10255542;28;20060;-76
2022/06/04 05:24:04;;;;;;;7.88;4.30;;;;;;;11.19;100.00;102179.03;10266768;28;20047;-78
2022/06/04 05:29:05;;;;;;;8.30;5.18;;;;;;;11.30;100.00;102194.81;10261985;28;20055;-78
2022/06/04 05:34:09;;;;;;;8.95;4.78;;;;;;;11.46;100.00;102187.88;10278005;28;20050;-78
2022/06/04 05:39:13;;;;;;;10.48;5.00;;;;;;;11.61;100.00;102195.78;10279063;28;20039;-77
2022/06/04 05:44:13;;;;;;;10.18;4.88;;;;;;;11.66;100.00;102187.69;10260182;28;20046;-77
2022/06/04 05:49:15;;;;;;;6.93;5.30;;;;;;;11.80;100.00;102197.50;10261574;28;20042;-77
2022/06/04 05:54:16;;;;;;;8.02;4.30;;;;;;;12.00;100.00;102204.69;10233645;28;20043;-77
2022/06/04 05:59:19;;;;;;;8.10;4.40;;;;;;;12.37;100.00;102221.22;10253147;28;20046;-78
2022/06/04 06:04:22;;;;;;;5.88;4.15;;;;;;;12.50;100.00;102198.91;10240430;28;20049;-77
2022/06/04 06:09:23;;;;;;;10.02;4.70;;;;;;;12.90;100.00;102198.31;10245234;28;20041;-76
2022/06/04 06:14:23;;;;;;;9.68;4.13;;;;;;;13.21;100.00;102205.44;10259718;28;20059;-77
2022/06/04 06:19:24;;;;;;;8.50;3.92;;;;;;;13.41;100.00;102226.41;10276699;28;20039;-78
2022/06/04 06:24:24;;;;;;;9.07;4.03;;;;;;;13.51;100.00;102244.06;10260411;28;20089;-77
2022/06/04 06:29:28;;;;;;;6.95;4.47;;;;;;;13.77;100.00;102238.31;10275922;28;20031;-77
2022/06/04 06:34:28;;;;;;;7.35;4.28;;;;;;;13.83;100.00;102199.41;10278405;28;20042;-77
2022/06/04 06:39:29;;;;;;;8.50;5.05;;;;;;;13.97;100.00;102221.28;10244686;28;20038;-77
2022/06/04 06:44:29;;;;;;;7.55;4.07;;;;;;;14.10;100.00;102218.25;10258451;28;20074;-77
2022/06/04 06:49:30;;;;;;;9.43;3.63;;;;;;;14.27;100.00;102218.31;10275601;28;20050;-76
2022/06/04 06:54:33;;;;;;;7.50;4.50;;;;;;;14.45;100.00;102231.97;10279613;28;20067;-77
2022/06/04 06:59:34;;;;;;;5.55;3.40;;;;;;;14.73;100.00;102227.53;10270270;28;20043;-76
2022/06/04 07:04:35;;;;;;;8.00;4.03;;;;;;;14.87;100.00;102244.72;10254992;28;20130;-78
2022/06/04 07:09:37;;;;;;;6.45;3.88;;;;;;;15.03;100.00;102238.34;10252888;28;20038;-78
2022/06/04 07:14:38;;;;;;;5.43;3.85;;;;;;;15.40;100.00;102264.72;10236286;28;20043;-78
2022/06/04 07:19:38;;;;;;;7.05;4.53;;;;;;;15.75;100.00;102250.59;10246863;28;20039;-77
2022/06/04 07:24:39;;;;;;;8.43;4.70;;;;;;;15.84;100.00;102246.28;10278937;28;20035;-76
2022/06/04 07:29:39;;;;;;;6.10;3.80;;;;;;;15.91;100.00;102255.25;10228768;28;20043;-77
2022/06/04 07:34:40;;;;;;;6.00;3.55;;;;;;;15.85;100.00;102228.50;10262481;28;20492;-77
2022/06/04 07:39:41;;;;;;;7.88;4.35;;;;;;;15.68;100.00;102228.53;10277332;28;20063;-77
2022/06/04 07:44:41;;;;;;;6.50;4.65;;;;;;;15.84;100.00;102251.84;10262029;28;20483;-77
2022/06/04 07:49:42;;;;;;;5.65;3.95;;;;;;;15.91;100.00;102243.31;10260636;28;20058;-76
2022/06/04 07:54:42;;;;;;;5.75;4.13;;;;;;;15.99;100.00;102233.69;10278638;28;20047;-77
2022/06/04 07:59:43;;;;;;;6.38;4.15;;;;;;;16.26;100.00;102240.16;10244396;28;20046;-77
2022/06/04 08:04:44;;;;;;;4.85;3.75;;;;;;;16.16;100.00;102244.75;10260015;28;20206;-78
2022/06/04 08:09:45;;;;;;;5.35;4.05;;;;;;;16.28;100.00;102237.94;10273843;28;20039;-77
2022/06/04 08:14:48;;;;;;;6.90;3.75;;;;;;;16.79;100.00;102232.13;10240639;28;20412;-78
2022/06/04 08:19:49;;;;;;;10.70;3.90;;;;;;;17.09;100.00;102250.22;10259032;28;20047;-78
2022/06/04 08:24:49;;;;;;;7.43;4.07;;;;;;;17.17;100.00;102221.91;10242720;28;20057;-78
2022/06/04 08:29:50;;;;;;;7.40;3.90;;;;;;;16.87;100.00;102245.56;10262421;28;20051;-77
2022/06/04 08:34:50;;;;;;;4.65;3.80;;;;;;;16.92;100.00;102244.78;10228257;28;20035;-79
2022/06/04 08:39:51;;;;;;;6.70;4.20;;;;;;;17.20;100.00;102253.91;10290088;28;20035;-78
2022/06/04 08:44:58;;;;;;;5.45;3.80;;;;;;;17.39;100.00;102224.56;10278582;28;20456;-78
2022/06/04 08:50:02;;;;;;;7.40;4.28;;;;;;;17.88;100.00;102237.44;10257993;28;20109;-83
2022/06/04 09:00:55;;;;;;;4.13;3.00;;;;;;;17.73;100.00;102225.06;10296098;28;20043;-78
2022/06/04 09:05:58;;;;;;;8.32;4.45;;;;;;;18.03;99.16;102217.19;10279529;28;20193;-78
2022/06/04 09:10:58;;;;;;;6.28;3.25;;;;;;;18.21;99.41;102216.69;10297020;28;20043;-78
2022/06/04 09:16:02;;;;;;;7.13;3.50;;;;;;;18.13;99.84;102217.22;10271886;28;20451;-78
2022/06/04 09:21:04;;;;;;;5.53;3.30;;;;;;;18.29;97.14;102205.03;10302101;28;20458;-78
2022/06/04 09:26:13;;;;;;;4.57;3.10;;;;;;;18.09;97.54;102213.31;10299524;28;20058;-77
2022/06/04 09:31:26;;;;;;;5.47;3.60;;;;;;;18.48;95.29;102207.28;10295482;28;20050;-78
2022/06/04 09:36:29;;;;;;;5.38;3.10;;;;;;;18.79;92.94;102208.22;10295517;28;20414;-78
2022/06/04 09:41:30;;;;;;;5.32;2.63;;;;;;;18.97;92.76;102206.81;10278620;28;20050;-78
2022/06/04 09:46:31;;;;;;;5.28;2.88;;;;;;;19.48;91.51;102209.56;10261580;28;20043;-78
2022/06/04 09:51:41;;;;;;;3.60;2.67;;;;;;;19.85;87.11;102213.16;10240592;28;20043;-78
2022/06/04 09:56:42;;;;;;;4.13;2.70;;;;;;;20.00;84.01;102212.25;10278974;28;20045;-78
2022/06/04 10:01:56;;;;;;;3.72;2.58;;;;;;;19.62;86.63;102206.19;10262568;28;20031;-78
2022/06/04 10:07:04;;;;;;;5.63;2.55;;;;;;;19.67;83.48;102193.03;10279537;28;20039;-78
2022/06/04 10:12:07;;;;;;;6.72;2.70;;;;;;;19.53;86.78;102217.94;10261980;28;20045;-78
2022/06/04 10:17:19;;;;;;;8.98;3.05;;;;;;;19.36;89.68;102225.78;10279736;28;20034;-79
2022/06/04 10:22:20;;;;;;;5.88;2.83;;;;;;;19.30;91.76;102221.31;10293783;28;20043;-77
2022/06/04 10:27:42;;;;;;;5.80;2.65;;;;;;;19.60;88.95;102228.00;10261299;28;20062;-78
2022/06/04 10:32:59;;;;;;;6.05;3.58;;;;;;;19.45;87.81;102231.63;10277287;28;20050;-78
2022/06/04 10:38:28;;;;;;;6.72;2.60;;;;;;;19.74;87.39;102238.31;10293706;28;20049;-78
2022/06/04 10:43:47;;;;;;;4.70;2.65;;;;;;;19.88;81.78;102241.34;10293865;28;20045;-78
2022/06/04 10:48:54;;;;;;;3.63;2.53;;;;;;;20.15;82.33;102240.97;10295138;28;20039;-79
2022/06/04 10:54:11;;;;;;;5.25;2.25;;;;;;;20.42;80.17;102233.28;10262216;28;20043;-80
2022/06/04 10:59:30;;;;;;;;;;;;;;;20.52;78.66;102238.81;10241566;28;20047;-79
2022/06/04 11:04:46;;;;;;;4.78;2.53;;;;;;;20.63;77.27;102201.31;10281605;28;19926;-79
2022/06/04 11:09:46;;;;;;;3.40;2.38;;;;;;;21.00;75.97;102213.91;10263032;28;20042;-78
2022/06/04 11:14:52;;;;;;;6.22;2.67;;;;;;;20.95;75.64;102203.56;10261941;28;20044;-79
2022/06/04 11:19:54;;;;;;;5.60;2.35;;;;;;;21.15;77.09;102224.97;10247933;28;20070;-78
2022/06/04 11:25:01;;;;;;;4.15;2.22;;;;;;;21.49;77.32;102221.31;10280619;28;20042;-79
2022/06/04 11:30:02;;;;;;;5.30;2.83;;;;;;;21.96;76.64;102216.88;10256945;28;20043;-79
2022/06/04 11:35:21;;;;;;;4.53;2.90;;;;;;;21.72;74.69;102204.81;10243354;28;20035;-79
2022/06/04 11:41:02;;;;;;;7.25;3.08;;;;;;;21.86;76.09;102211.38;10301461;28;20114;-79
2022/06/04 11:46:41;;;;;;;2.92;1.85;;;;;;;22.01;76.28;102220.75;10282306;28;20055;-78
2022/06/04 11:52:06;;;;;;;3.85;2.33;;;;;;;22.66;75.38;102201.34;10298449;28;20043;-79
2022/06/04 11:57:28;;;;;;;9.38;3.70;;;;;;;23.29;69.87;102196.38;10301041;28;20054;-79
2022/06/04 12:02:38;;;;;;;7.65;2.55;;;;;;;23.23;68.54;102181.59;10286140;28;20447;-79
2022/06/04 12:07:41;;;;;;;3.30;2.17;;;;;;;23.40;68.52;102192.25;10287348;28;20102;-79
2022/06/04 12:12:54;;;;;;;3.47;2.40;;;;;;;23.53;66.45;102179.38;10313237;28;20069;-79
2022/06/04 12:17:59;;;;;;;3.75;2.40;;;;;;;23.71;65.22;102186.03;10259433;28;20049;-79
2022/06/04 12:28:21;;;;;;;4.05;2.35;;;;;;;24.62;61.89;102159.88;10297652;28;20039;-79
2022/06/04 12:33:38;;;;;;;4.68;2.30;;;;;;;24.11;64.26;102181.56;10281977;28;20043;-79
2022/06/04 12:38:40;;;;;;;4.70;1.98;;;;;;;24.64;63.67;102179.25;10295427;28;20066;-78
2022/06/04 12:43:45;;;;;;;7.20;2.60;;;;;;;23.76;63.52;102183.13;10278349;28;20086;-78
2022/06/04 12:48:56;;;;;;;5.20;2.80;;;;;;;23.54;63.17;102152.91;10278092;28;20069;-77
2022/06/04 12:54:05;;;;;;;8.18;2.70;;;;;;;23.42;65.33;102201.22;10293065;28;20039;-78
2022/06/04 12:59:22;;;;;;;5.93;2.38;;;;;;;23.94;64.87;102184.19;10261522;28;20043;-77
2022/06/04 13:04:23;;;;;;;5.70;2.58;;;;;;;23.83;65.35;102189.19;10257577;28;20035;-78
2022/06/04 13:09:47;;;;;;;6.65;2.70;;;;;;;24.28;64.33;102196.94;10257296;28;20122;-78
2022/06/04 13:15:06;;;;;;;5.72;2.25;;;;;;;24.77;62.04;102182.03;10289741;28;20046;-79
2022/06/04 13:20:34;;;;;;;5.22;2.42;;;;;;;24.65;62.01;102190.19;10293776;28;20038;-77
2022/06/04 13:25:38;;;;;;;5.63;3.10;;;;;;;24.15;63.78;102178.94;10297822;28;20050;-81
2022/06/04 13:30:39;;;;;;;6.43;2.60;;;;;;;23.40;65.66;102200.69;10280916;28;20038;-79
2022/06/04 13:35:44;;;;;;;6.28;2.92;;;;;;;24.19;64.38;102190.41;10296406;28;20054;-79
2022/06/04 13:40:45;;;;;;;5.07;2.83;;;;;;;24.53;62.51;102189.94;10279205;28;20042;-78
2022/06/04 13:45:46;;;;;;;6.43;3.05;;;;;;;24.59;63.83;102199.91;10297053;28;20294;-78
2022/06/04 13:50:49;;;;;;;4.82;2.47;;;;;;;24.12;64.81;102193.63;10294400;28;20119;-78
2022/06/04 13:55:54;;;;;;;6.60;3.20;;;;;;;24.40;64.87;102177.53;10296239;28;20039;-78
2022/06/04 14:00:58;;;;;;;6.65;2.63;;;;;;;24.24;63.53;102171.41;10262662;28;20093;-78
2022/06/04 14:05:58;;;;;;;5.93;2.63;;;;;;;24.14;62.63;102160.38;10274122;28;20118;-78
2022/06/04 14:11:27;;;;;;;5.88;2.92;;;;;;;23.85;63.76;102178.44;10274425;28;20410;-78
2022/06/04 14:16:42;;;;;;;5.78;2.65;;;;;;;23.91;64.91;102182.00;10274443;28;20043;-79
2022/06/04 14:22:06;;;;;;;6.88;3.10;;;;;;;24.07;61.23;102155.19;10276573;28;20054;-78
2022/06/04 14:27:30;;;;;;;4.78;2.58;;;;;;;24.69;61.28;102163.06;10242569;28;20047;-79
2022/06/04 14:32:48;;;;;;;4.03;2.30;;;;;;;24.84;58.97;102146.94;10281635;28;20107;-78
2022/06/04 14:37:50;;;;;;;8.27;2.90;;;;;;;24.80;61.15;102152.38;10278424;28;20058;-78
2022/06/04 14:43:16;;;;;;;6.93;2.42;;;;;;;25.07;60.44;102154.19;10294394;28;20050;-79
2022/06/04 14:48:31;;;;;;;4.43;2.50;;;;;;;24.66;61.11;102155.28;10292411;28;20051;-79
2022/06/04 14:53:32;;;;;;;6.37;2.70;;;;;;;25.16;58.85;102138.19;10294895;28;20039;-77
2022/06/04 14:58:49;;;;;;;4.05;2.30;;;;;;;25.70;58.20;102142.94;10292817;28;20452;-77
2022/06/04 15:05:17;;;;;;;9.98;3.17;;;;;;;26.38;58.91;102146.22;10292244;28;20051;-77
2022/06/04 15:10:12;;;;;;;6.13;2.42;;;;;;;26.70;56.38;102142.06;10275848;28;20927;-77
2022/06/04 15:15:25;;;;;;;8.05;2.70;;;;;;;26.70;55.31;102127.94;10287848;28;20043;-80
2022/06/04 15:20:28;;;;;;;7.32;2.90;;;;;;;26.33;57.74;102115.31;10268244;28;20470;-77
2022/06/04 15:25:50;;;;;;;5.20;2.90;;;;;;;26.82;55.80;102123.63;10254472;28;20054;-77
2022/06/04 15:36:36;;;;;;;5.65;2.67;;;;;;;26.33;55.73;102110.50;10252302;28;20407;-77
2022/06/04 15:41:47;;;;;;;4.38;2.65;;;;;;;26.91;55.24;102102.63;10262885;28;20039;-78
2022/06/04 15:46:54;;;;;;;6.57;3.13;;;;;;;26.02;54.93;102070.31;10253113;28;20063;-77
2022/06/04 15:57:39;;;;;;;9.23;4.00;;;;;;;26.07;54.86;102089.94;10263436;28;20047;-78
2022/06/04 16:02:40;;;;;;;7.85;2.90;;;;;;;26.71;54.36;102092.09;10272922;28;20063;-76
2022/06/04 16:07:51;;;;;;;8.20;2.85;;;;;;;26.66;54.80;102095.06;10276273;28;20086;-78
2022/06/04 16:12:57;;;;;;;5.45;2.30;;;;;;;26.82;55.10;102087.72;10280051;28;20101;-77
2022/06/04 16:18:13;;;;;;;5.70;2.30;;;;;;;26.82;53.63;102087.72;10291615;28;20039;-78
2022/06/04 16:23:23;;;;;;;5.40;2.38;;;;;;;25.65;54.36;102083.84;10289673;28;20044;-79
2022/06/04 16:28:36;;;;;;;5.97;3.22;;;;;;;24.71;58.64;102112.06;10266438;28;20073;-79
2022/06/04 16:34:01;;;;;;;5.40;2.70;;;;;;;23.47;60.22;102105.56;10284164;28;20035;-78
2022/06/04 16:39:01;;;;;;;5.80;2.90;;;;;;;22.59;63.42;102130.72;10276083;28;20042;-79
2022/06/04 16:44:01;;;;;;;7.32;2.92;;;;;;;22.04;65.74;102139.66;10283157;28;20402;-79
2022/06/04 16:54:31;;;;;;;9.50;3.63;;;;;;;20.03;70.91;102155.75;10278689;28;20119;-78
2022/06/04 16:59:32;;;;;;;8.40;4.30;;;;;;;19.45;73.42;102154.28;10283329;28;20035;-77
2022/06/04 17:05:10;;;;;;;7.35;2.90;;;;;;;19.05;77.03;102160.75;10279905;28;20038;-77
2022/06/04 17:10:17;;;;;;;6.00;3.28;;;;;;;18.60;80.58;102171.59;10284850;28;20134;-77
2022/06/04 17:15:45;;;;;;;6.13;2.90;;;;;;;18.45;83.17;102175.19;10286621;28;20035;-78
2022/06/04 17:20:51;;;;;;;10.88;3.90;;;;;;;18.06;83.74;102177.59;10283460;28;20074;-77
2022/06/04 17:26:04;;;;;;;5.45;3.15;;;;;;;17.94;86.32;102167.56;10289097;28;20042;-77
2022/06/04 17:31:18;;;;;;;9.07;4.00;;;;;;;17.65;87.93;102155.13;10281648;28;20817;-77
2022/06/04 17:36:34;;;;;;;9.20;3.83;;;;;;;17.28;91.09;102181.91;10282018;28;20039;-77
2022/06/04 17:41:38;;;;;;;8.77;4.07;;;;;;;17.06;95.81;102192.31;10290137;28;20490;-77
2022/06/04 17:46:38;;;;;;;12.07;4.28;;;;;;;16.98;96.34;102182.53;10278903;28;20046;-77
2022/06/04 17:51:41;;;;;;;9.18;3.72;;;;;;;16.72;99.42;102159.16;10300346;28;20050;-77
2022/06/04 17:56:41;;;;;;;7.97;3.80;;;;;;;16.74;98.08;102191.19;10286478;28;20039;-76
2022/06/04 18:01:41;;;;;;;7.03;4.35;;;;;;;16.57;100.00;102201.56;10293003;28;20031;-79
2022/06/04 18:06:42;;;;;;;7.35;3.55;;;;;;;16.39;100.00;102199.16;10287599;28;20035;-77
2022/06/04 18:11:43;;;;;;;13.23;3.40;;;;;;;16.11;100.00;102188.00;10277397;28;20046;-77
2022/06/04 18:16:43;;;;;;;11.55;5.22;;;;;;;16.07;100.00;102199.91;10252873;28;20050;-77
2022/06/04 18:21:44;;;;;;;7.82;3.55;;;;;;;16.04;100.00;102197.63;10255164;28;20035;-76
2022/06/04 18:26:46;;;;;;;8.57;3.83;;;;;;;15.89;100.00;102198.28;10281487;28;20039;-76
2022/06/04 18:31:48;;;;;;;6.25;3.45;;;;;;;15.86;100.00;102191.31;10288444;28;20130;-77
2022/06/04 18:36:50;;;;;;;10.15;4.55;;;;;;;15.67;100.00;102196.31;10285322;28;20050;-77
2022/06/04 18:41:51;;;;;;;8.98;4.05;;;;;;;15.52;100.00;102196.94;10287090;28;20053;-77
2022/06/04 18:57:29;;;;;;;8.35;3.53;;;;;;;15.10;100.00;102202.94;10268189;28;20043;-77
2022/06/04 19:02:30;;;;;;;8.05;4.22;;;;;;;14.98;100.00;102206.91;10285408;28;20419;-77
2022/06/04 19:18:08;;;;;;;7.20;3.70;;;;;;;14.47;100.00;102187.38;10294893;28;20035;-76
2022/06/04 19:28:28;;;;;;;5.82;4.07;;;;;;;14.23;100.00;102198.56;10305288;28;20039;-76
2022/06/04 19:33:28;;;;;;;12.73;4.50;;;;;;;14.18;100.00;102212.34;10294175;28;20036;-77
2022/06/04 19:38:29;;;;;;;6.25;4.22;;;;;;;14.11;100.00;102200.53;10262773;28;20047;-77
2022/06/04 19:43:29;;;;;;;8.45;4.13;;;;;;;13.96;100.00;102200.25;10271191;28;20035;-77
2022/06/04 19:48:30;;;;;;;6.50;3.75;;;;;;;13.82;100.00;102196.88;10288291;28;20030;-76
2022/06/04 19:58:52;;;;;;;8.13;5.28;;;;;;;13.31;100.00;102166.13;10289392;28;20103;-77
2022/06/04 20:03:52;;;;;;;10.70;5.40;;;;;;;13.18;100.00;102182.97;10287293;28;20129;-77
2022/06/04 20:08:53;;;;;;;11.10;5.63;;;;;;;13.22;100.00;102209.06;10271770;28;20063;-77
2022/06/04 20:13:53;;;;;;;11.48;5.82;;;;;;;13.10;100.00;102209.91;10250900;28;20070;-77
2022/06/04 20:18:54;;;;;;;13.30;5.05;;;;;;;13.01;100.00;102216.84;10287938;28;20037;-76
2022/06/04 20:23:55;;;;;;;8.38;5.63;;;;;;;12.90;100.00;102212.97;10290885;28;20034;-76
2022/06/04 20:28:56;;;;;;;10.30;6.18;;;;;;;12.67;100.00;102199.09;10292932;28;20039;-78
2022/06/04 20:33:57;;;;;;;9.80;6.25;;;;;;;12.62;100.00;102191.50;10272484;28;20479;-77
2022/06/04 20:38:57;;;;;;;10.15;5.22;;;;;;;12.64;100.00;102189.34;10298001;28;20506;-77
2022/06/04 20:44:00;;;;;;;12.90;6.15;;;;;;;12.47;100.00;102204.94;10297647;28;20038;-77
2022/06/04 20:49:09;;;;;;;9.00;5.78;;;;;;;12.38;100.00;102206.31;10251618;28;20055;-77
2022/06/04 20:54:10;;;;;;;15.00;6.57;;;;;;;11.97;100.00;102155.47;10284930;28;20032;-80
2022/06/04 20:59:11;;;;;;;9.15;6.20;;;;;;;12.16;100.00;102204.06;10295780;28;20053;-77
2022/06/04 21:04:11;;;;;;;18.80;7.63;;;;;;;12.10;100.00;102199.47;10240457;28;20043;-76
2022/06/04 21:09:13;;;;;;;17.33;7.40;;;;;;;12.06;100.00;102203.78;10284377;28;20030;-76
2022/06/04 21:14:13;;;;;;;12.85;8.05;;;;;;;12.03;100.00;102209.75;10302771;28;20035;-75
2022/06/04 21:19:14;;;;;;;13.75;7.53;;;;;;;11.97;100.00;102202.38;10278723;28;20053;-78
2022/06/04 21:24:15;;;;;;;12.82;7.57;;;;;;;11.89;100.00;102207.16;10257183;28;20062;-78
2022/06/04 21:29:16;;;;;;;14.00;7.10;;;;;;;11.79;100.00;102195.78;10286833;28;20066;-77
2022/06/04 21:39:37;;;;;;;12.80;7.40;;;;;;;11.74;100.00;102200.31;10266119;28;20042;-79
2022/06/04 21:44:37;;;;;;;16.80;9.15;;;;;;;11.65;100.00;102197.00;10274243;28;20035;-77
2022/06/04 21:49:38;;;;;;;20.75;8.95;;;;;;;11.50;100.00;102184.44;10272140;28;20030;-79
2022/06/04 21:54:38;;;;;;;15.30;8.90;;;;;;;11.48;100.00;102205.88;10276785;28;20039;-78
2022/06/04 21:59:39;;;;;;;13.57;9.77;;;;;;;11.39;100.00;102207.25;10295024;28;20042;-78
2022/06/04 22:04:41;;;;;;;18.15;9.73;;;;;;;11.27;100.00;102189.78;10277539;28;20039;-78
2022/06/04 22:09:41;;;;;;;17.45;9.65;;;;;;;11.26;100.00;102193.59;10254212;28;20074;-76
2022/06/04 22:14:43;;;;;;;13.90;9.52;;;;;;;11.26;100.00;102188.06;10286643;28;20101;-76
2022/06/04 22:19:46;;;;;;;13.40;9.07;;;;;;;11.24;100.00;102190.22;10290565;28;20095;-78
2022/06/04 22:24:48;;;;;;;12.52;9.70;;;;;;;11.18;100.00;102174.59;10282438;28;20047;-78
2022/06/04 22:29:49;;;;;;;19.40;10.60;;;;;;;11.20;100.00;102169.69;10261427;28;20053;-77
2022/06/04 22:34:49;;;;;;;16.63;10.45;;;;;;;11.16;100.00;102176.72;10279243;28;20034;-77
2022/06/04 22:39:50;;;;;;;16.92;9.95;;;;;;;11.13;100.00;102166.16;10248483;28;20046;-77
2022/06/04 22:44:50;;;;;;;14.77;10.07;;;;;;;10.97;100.00;102160.13;10280081;28;20049;-77
2022/06/04 22:49:51;;;;;;;16.92;10.27;;;;;;;10.98;100.00;102163.75;10289721;28;20039;-77
2022/06/04 22:54:51;;;;;;;16.33;12.00;;;;;;;10.92;100.00;102154.47;10297787;28;20093;-76
2022/06/04 22:59:52;;;;;;;22.83;12.45;;;;;;;10.74;100.00;102148.91;10270631;28;20039;-77
2022/06/04 23:04:52;;;;;;;20.05;11.52;;;;;;;10.84;100.00;102174.03;10261543;28;20040;-76
2022/06/04 23:20:45;;;;;;;20.35;13.75;;;;;;;10.62;100.00;102171.63;10285494;28;20049;-77
2022/06/04 23:26:08;;;;;;;20.77;12.82;;;;;;;10.43;100.00;102147.84;10298493;28;20580;-75
2022/06/04 23:31:10;;;;;;;21.80;13.07;;;;;;;10.60;100.00;102183.94;10267597;28;20050;-76
2022/06/04 23:36:10;;;;;;;24.33;12.65;;;;;;;10.57;100.00;102182.50;10277426;28;20069;-76
2022/06/04 23:46:30;;;;;;;17.02;11.68;;;;;;;10.45;100.00;102153.97;10303516;28;20038;-76
2022/06/04 23:51:31;;;;;;;21.40;12.32;;;;;;;10.50;100.00;102156.94;10305056;28;20038;-76
2022/06/04 23:56:31;;;;;;;20.45;12.40;;;;;;;10.45;100.00;102137.47;10289223;28;20078;-76
